Aviation Digital Data Service (ADDS)

Output produced by METARs form (1711 UTC 20 January 2019)
found at http://www.aviationweather.gov/metar/data/
 
HTAR 201600Z 00000KT 9999 FEW030CB BKN032 27/15 Q1014 NOSIG
HTDA 201600Z 04014KT 9999 SCT025 SCT070 29/25 Q1009 NOSIG
HTDA 201100Z 2012/2118 02010KT 9999 SCT024 
     BECMG 2105/2108 34010KT BKN019
       
HTDO 201600Z 26006KT 9999 FEW026 FEW028CB SCT080 BKN260 24/19 Q1016 NOSIG
HTDO 201100Z 2012/2112 31006KT 9999 SCT024 FEW025CB 
     TEMPO 2013/2015 TS/SHRA BKN018 FEW020CB BKN080 
     BECMG 2017/2019 NSW SCT020 FEW022CB
       
HTIR 201600Z 00000KT 9999 SCT017 FEW018CB BKN080 20/17 Q1019 RERA
HTKJ 201600Z 13008KT 9999 FEW032CB SCT034 31/16 Q1011 NOSIG
HTKJ 201100Z 2012/2112 09010KT 9999 FEW034CB SCT035 
     BECMG 2016/2018 00000KT SCT028 BKN080
       
HTMT 201600Z 36015KT 9999 BKN021 FEW022CB 29/26 Q1009
HTMW 201600Z 27010KT 9999 FEW022 FEW023CB SCT280 24/20 Q1015 NOSIG
HTMW 201100Z 2012/2112 33015KT 9999 FEW022 FEW023CB 
     BECMG 2018/2020 00000KT 
     TEMPO 2103/2109 33010KT TS/TSRA SCT020 FEW021CB BKN090
       
HTZA 201600Z 04010KT 9999 FEW020 29/24 Q1008 NOSIG
HTZA 201100Z 2012/2112 05015KT 9999 FEW022 
     BECMG 2018/2020 02005KT 
     BECMG 2103/2105 35010KT SCT016 SCT080 
     BECMG 2109/2111 04015KT